createdAt,value
2023-02-07T00:01:56.890Z,7.40
2023-02-07T00:04:46.785Z,8.43
2023-02-07T00:07:35.576Z,8.60
2023-02-07T00:10:24.142Z,9.50
2023-02-07T00:13:12.670Z,9.20
2023-02-07T00:16:01.225Z,8.97
2023-02-07T00:18:50.053Z,9.27
2023-02-07T00:21:40.021Z,8.53
2023-02-07T00:24:28.539Z,9.83
2023-02-07T00:27:17.057Z,11.07
2023-02-07T00:30:06.438Z,8.37
2023-02-07T00:32:55.014Z,8.63
2023-02-07T00:35:43.813Z,10.00
2023-02-07T00:38:33.666Z,7.77
2023-02-07T00:41:22.180Z,9.10
2023-02-07T00:44:10.680Z,8.03
2023-02-07T00:46:59.241Z,10.10
2023-02-07T00:49:47.932Z,10.67
2023-02-07T00:52:36.430Z,12.27
2023-02-07T00:55:26.508Z,9.27
2023-02-07T00:58:14.966Z,9.10
2023-02-07T01:01:03.544Z,9.80
2023-02-07T01:03:52.448Z,9.60
2023-02-07T01:06:41.081Z,8.80
2023-02-07T01:09:29.560Z,12.33
2023-02-07T01:12:19.427Z,10.97
2023-02-07T01:15:08.774Z,9.90
2023-02-07T01:17:57.263Z,10.37
2023-02-07T01:20:45.925Z,9.83
2023-02-07T01:23:34.397Z,10.63
2023-02-07T01:26:22.907Z,9.13
2023-02-07T01:29:15.454Z,9.20
2023-02-07T01:32:03.937Z,10.67
2023-02-07T01:34:52.455Z,11.67
2023-02-07T01:37:41.074Z,10.97
2023-02-07T01:40:31.289Z,9.47
2023-02-07T01:43:23.407Z,9.20
2023-02-07T01:46:13.241Z,9.40
2023-02-07T01:49:05.277Z,10.83
2023-02-07T01:51:56.582Z,11.27
2023-02-07T01:54:46.255Z,10.83
2023-02-07T01:57:34.747Z,9.93
2023-02-07T02:00:23.363Z,9.93
2023-02-07T02:03:13.755Z,9.80
2023-02-07T02:06:04.687Z,10.10
2023-02-07T02:08:54.145Z,10.40
2023-02-07T02:12:00.619Z,10.30
2023-02-07T02:15:01.715Z,8.60
2023-02-07T02:18:01.565Z,11.60
2023-02-07T02:21:17.809Z,11.57
2023-02-07T02:24:39.875Z,12.83
2023-02-07T02:27:42.026Z,12.80
2023-02-07T02:30:45.061Z,12.03
2023-02-07T02:33:43.580Z,12.17
2023-02-07T02:36:35.436Z,10.83
2023-02-07T02:39:32.507Z,11.87
2023-02-07T02:42:27.951Z,12.97
2023-02-07T02:45:19.777Z,12.27
2023-02-07T02:48:11.064Z,14.33
2023-02-07T02:51:01.216Z,14.77
2023-02-07T02:53:53.600Z,14.50
2023-02-07T02:57:00.148Z,13.07
2023-02-07T03:00:16.611Z,13.53
2023-02-07T03:03:20.616Z,16.30
2023-02-07T03:06:23.911Z,14.90
2023-02-07T03:09:19.050Z,19.27
2023-02-07T03:12:11.429Z,14.03
2023-02-07T03:15:04.371Z,15.33
2023-02-07T03:17:56.111Z,14.67
2023-02-07T03:20:47.549Z,15.07
2023-02-07T03:23:38.581Z,17.93
2023-02-07T03:26:27.697Z,13.13
2023-02-07T03:29:17.858Z,16.90
2023-02-07T03:32:10.527Z,15.50
2023-02-07T03:35:01.821Z,18.43
2023-02-07T03:37:54.075Z,15.23
2023-02-07T03:40:46.034Z,15.00
2023-02-07T03:43:35.303Z,16.10
2023-02-07T03:46:24.605Z,16.30
2023-02-07T03:49:14.831Z,18.10
2023-02-07T03:52:03.414Z,16.80
2023-02-07T03:54:51.858Z,15.97
2023-02-07T03:57:41.816Z,18.13
2023-02-07T04:00:30.405Z,16.60
2023-02-07T04:03:18.867Z,20.20
2023-02-07T04:06:07.628Z,17.53
2023-02-07T04:08:56.065Z,16.50
2023-02-07T04:11:44.581Z,19.20
2023-02-07T04:14:34.458Z,22.90
2023-02-07T04:17:22.910Z,21.33
2023-02-07T04:20:12.277Z,19.13
2023-02-07T04:23:00.729Z,18.20
2023-02-07T04:25:49.178Z,17.80
2023-02-07T04:28:37.676Z,19.17
2023-02-07T04:31:27.533Z,21.30
2023-02-07T04:34:16.216Z,18.20
2023-02-07T04:37:04.686Z,19.27
2023-02-07T04:39:53.196Z,23.20
2023-02-07T04:42:41.660Z,20.83
2023-02-07T04:45:30.193Z,22.50
2023-02-07T04:48:19.992Z,20.60
2023-02-07T04:51:08.690Z,21.60
2023-02-07T04:53:57.452Z,22.83
2023-02-07T04:56:45.929Z,22.53
2023-02-07T04:59:34.661Z,21.63
2023-02-07T05:02:24.501Z,19.57
2023-02-07T05:05:14.393Z,18.40
2023-02-07T05:08:05.205Z,23.10
2023-02-07T05:10:54.700Z,19.93
2023-02-07T05:13:43.224Z,23.40
2023-02-07T05:16:31.805Z,20.27
2023-02-07T05:19:20.397Z,21.00
2023-02-07T05:22:10.412Z,28.90
2023-02-07T05:24:58.861Z,19.73
2023-02-07T05:27:47.416Z,22.70
2023-02-07T05:30:36.236Z,23.93
2023-02-07T05:33:24.809Z,22.03
2023-02-07T05:36:13.258Z,21.33
2023-02-07T05:39:04.447Z,20.97
2023-02-07T05:41:53.015Z,24.00
2023-02-07T05:44:41.521Z,26.87
2023-02-07T05:47:29.963Z,20.33
2023-02-07T05:50:19.093Z,21.43
2023-02-07T05:53:08.309Z,24.30
2023-02-07T05:55:58.177Z,25.03
2023-02-07T05:58:46.742Z,21.70
2023-02-07T06:01:37.334Z,20.93
2023-02-07T06:04:25.997Z,21.90
2023-02-07T06:07:14.500Z,19.60
2023-02-07T06:10:03.271Z,22.17
2023-02-07T06:12:53.178Z,20.20
2023-02-07T06:15:41.941Z,23.90
2023-02-07T06:18:30.537Z,23.20
2023-02-07T06:21:19.057Z,17.97
2023-02-07T06:24:08.186Z,19.93
2023-02-07T06:26:56.664Z,19.73
2023-02-07T06:29:46.501Z,23.60
2023-02-07T06:32:35.115Z,20.13
2023-02-07T06:35:23.591Z,20.07
2023-02-07T06:38:12.060Z,19.20
2023-02-07T06:41:00.524Z,19.90
2023-02-07T06:43:49.051Z,21.00
2023-02-07T06:46:39.250Z,21.33
2023-02-07T06:49:27.771Z,21.40
2023-02-07T06:52:16.502Z,21.10
2023-02-07T06:55:05.244Z,20.37
2023-02-07T06:57:53.924Z,25.10
2023-02-07T07:00:42.598Z,24.63
2023-02-07T07:03:32.664Z,19.63
2023-02-07T07:06:21.110Z,23.57
2023-02-07T07:09:09.621Z,20.27
2023-02-07T07:11:58.265Z,21.57
2023-02-07T07:14:46.807Z,23.67
2023-02-07T07:17:35.338Z,23.27
2023-02-07T07:20:25.293Z,24.93
2023-02-07T07:23:13.835Z,22.70
2023-02-07T07:26:02.458Z,20.63
2023-02-07T07:28:51.020Z,21.20
2023-02-07T07:31:39.579Z,22.50
2023-02-07T07:34:28.365Z,21.10
2023-02-07T07:37:18.802Z,23.50
2023-02-07T07:40:08.542Z,22.87
2023-02-07T07:42:57.114Z,23.30
2023-02-07T07:45:45.595Z,21.47
2023-02-07T07:48:35.270Z,19.90
2023-02-07T07:51:24.100Z,19.80
2023-02-07T07:54:16.092Z,21.93
2023-02-07T07:57:04.787Z,21.80
2023-02-07T07:59:53.309Z,20.07
2023-02-07T08:02:42.092Z,20.60
2023-02-07T08:05:30.586Z,20.50
2023-02-07T08:08:20.484Z,20.50
2023-02-07T08:11:11.348Z,19.00
2023-02-07T08:13:59.864Z,21.33
2023-02-07T08:16:48.619Z,19.53
2023-02-07T08:19:38.301Z,19.10
2023-02-07T08:22:26.862Z,23.40
2023-02-07T08:25:15.515Z,18.80
2023-02-07T08:28:05.487Z,20.43
2023-02-07T08:30:53.987Z,24.03
2023-02-07T08:33:44.881Z,18.70
2023-02-07T08:36:33.438Z,18.93
2023-02-07T08:39:22.160Z,19.67
2023-02-07T08:42:10.687Z,20.00
2023-02-07T08:45:00.650Z,20.37
2023-02-07T08:47:49.154Z,20.70
2023-02-07T08:50:38.077Z,19.50
2023-02-07T08:53:26.898Z,21.10
2023-02-07T08:56:15.462Z,19.10
2023-02-07T08:59:04.297Z,18.37
2023-02-07T09:01:54.231Z,21.90
2023-02-07T09:04:43.263Z,21.20
2023-02-07T09:07:31.848Z,20.17
2023-02-07T09:10:20.578Z,20.30
2023-02-07T09:13:09.176Z,17.13
2023-02-07T09:15:58.577Z,22.40
2023-02-07T09:18:50.257Z,20.57
2023-02-07T09:21:38.885Z,19.23
2023-02-07T09:24:30.101Z,20.00
2023-02-07T09:27:18.675Z,18.03
2023-02-07T09:30:09.290Z,16.77
2023-02-07T09:32:58.309Z,16.70
2023-02-07T09:35:48.696Z,16.43
2023-02-07T09:38:37.212Z,16.10
2023-02-07T09:41:30.963Z,15.90
2023-02-07T09:44:26.120Z,17.97
2023-02-07T09:47:18.170Z,17.23
2023-02-07T09:50:09.549Z,14.93
2023-02-07T09:53:06.504Z,17.83
2023-02-07T09:55:56.841Z,18.10
2023-02-07T09:58:48.586Z,15.03
2023-02-07T10:01:40.402Z,16.70
2023-02-07T10:04:31.443Z,18.40
2023-02-07T10:07:19.955Z,17.80
2023-02-07T10:10:16.775Z,18.93
2023-02-07T10:13:21.460Z,18.53
2023-02-07T10:16:21.181Z,17.30
2023-02-07T10:19:19.310Z,17.10
2023-02-07T10:22:15.754Z,15.43
2023-02-07T10:25:12.966Z,18.73
2023-02-07T10:28:19.427Z,17.60
2023-02-07T10:31:18.636Z,17.37
2023-02-07T10:34:13.531Z,18.07
2023-02-07T10:37:07.254Z,17.67
2023-02-07T10:40:02.327Z,15.97
2023-02-07T10:42:54.686Z,18.30
2023-02-07T10:45:45.336Z,18.53
2023-02-07T10:48:35.204Z,19.40
2023-02-07T10:51:28.810Z,17.87
2023-02-07T10:54:20.205Z,20.33
2023-02-07T10:57:17.360Z,22.67
2023-02-07T11:00:08.775Z,20.33
2023-02-07T11:03:03.379Z,18.90
2023-02-07T11:05:55.563Z,21.20
2023-02-07T11:08:44.119Z,25.10
2023-02-07T11:11:36.602Z,18.20
2023-02-07T11:14:28.296Z,16.57
2023-02-07T11:17:21.433Z,20.57
2023-02-07T11:20:19.210Z,20.43
2023-02-07T11:23:12.075Z,18.30
2023-02-07T11:26:00.911Z,18.40
2023-02-07T11:28:53.129Z,19.07
2023-02-07T11:31:42.527Z,18.60
2023-02-07T11:34:46.974Z,18.20
2023-02-07T11:37:38.206Z,22.70
2023-02-07T11:40:29.775Z,17.47
2023-02-07T11:43:20.097Z,16.73
2023-02-07T11:46:10.912Z,17.80
2023-02-07T11:49:00.204Z,20.07
2023-02-07T11:51:52.079Z,22.10
2023-02-07T11:54:42.925Z,23.00
2023-02-07T11:57:33.785Z,18.90
2023-02-07T12:00:25.402Z,17.00
2023-02-07T12:03:22.777Z,19.30
2023-02-07T12:06:16.004Z,16.77
2023-02-07T12:09:06.425Z,18.93
2023-02-07T12:11:57.263Z,17.10
2023-02-07T12:14:51.740Z,20.33
2023-02-07T12:17:43.691Z,17.90
2023-02-07T12:20:37.516Z,17.47
2023-02-07T12:23:42.403Z,17.37
2023-02-07T12:26:34.080Z,16.90
2023-02-07T12:29:31.698Z,16.33
2023-02-07T12:32:27.326Z,17.03
2023-02-07T12:35:21.752Z,16.27
2023-02-07T12:38:18.026Z,17.40
2023-02-07T12:41:14.943Z,19.93
2023-02-07T12:44:09.481Z,20.93
2023-02-07T12:47:02.600Z,19.37
2023-02-07T12:50:16.714Z,16.10
2023-02-07T12:53:17.330Z,15.43
2023-02-07T12:56:14.325Z,19.10
2023-02-07T12:59:13.544Z,17.63
2023-02-07T13:02:17.267Z,16.80
2023-02-07T13:05:27.136Z,15.87
2023-02-07T13:08:23.857Z,15.70
2023-02-07T13:11:22.896Z,17.27
2023-02-07T13:14:23.684Z,16.87
2023-02-07T13:17:31.912Z,16.40
2023-02-07T13:20:28.816Z,17.90
2023-02-07T13:23:19.458Z,15.30
2023-02-07T13:26:11.515Z,14.90
2023-02-07T13:29:01.760Z,15.50
2023-02-07T13:31:52.480Z,16.60
2023-02-07T13:34:46.240Z,17.13
2023-02-07T13:37:40.490Z,16.57
2023-02-07T13:40:34.809Z,15.30
2023-02-07T13:43:30.414Z,16.30
2023-02-07T13:46:32.946Z,17.40
2023-02-07T13:49:26.475Z,14.10
2023-02-07T13:52:22.697Z,17.67
2023-02-07T13:55:21.757Z,14.93
2023-02-07T13:59:06.057Z,14.40
2023-02-07T14:01:55.800Z,17.80
2023-02-07T14:04:50.349Z,14.27
2023-02-07T14:07:40.497Z,14.60
2023-02-07T14:10:50.573Z,17.77
2023-02-07T14:13:39.070Z,15.83
2023-02-07T14:16:46.864Z,15.67
2023-02-07T14:19:54.915Z,14.80
2023-02-07T14:23:12.131Z,14.60
2023-02-07T14:26:00.650Z,13.77
2023-02-07T14:28:49.127Z,16.37
2023-02-07T14:31:41.923Z,13.37
2023-02-07T14:34:31.769Z,13.23
2023-02-07T14:37:23.253Z,16.50
2023-02-07T14:40:22.409Z,13.90
2023-02-07T14:43:17.985Z,13.87
2023-02-07T14:46:10.618Z,13.10
2023-02-07T14:49:01.463Z,14.20
2023-02-07T14:51:52.930Z,15.23
2023-02-07T14:54:44.894Z,13.53
2023-02-07T14:57:44.204Z,13.03
2023-02-07T15:00:35.355Z,12.67
2023-02-07T15:03:23.924Z,14.80
2023-02-07T15:06:30.769Z,14.90
2023-02-07T15:09:25.611Z,13.50
2023-02-07T15:12:26.836Z,13.73
2023-02-07T15:15:22.385Z,13.30
2023-02-07T15:18:14.285Z,13.30
2023-02-07T15:21:03.339Z,13.17
2023-02-07T15:23:56.471Z,12.53
2023-02-07T15:26:50.230Z,12.60
2023-02-07T15:29:39.037Z,15.23
2023-02-07T15:32:30.883Z,14.83
2023-02-07T15:35:22.443Z,12.43
2023-02-07T15:38:16.403Z,13.70
2023-02-07T15:41:08.009Z,11.60
2023-02-07T15:44:00.929Z,11.80
2023-02-07T15:46:50.980Z,13.57
2023-02-07T15:49:43.205Z,13.80
2023-02-07T15:52:33.976Z,14.67
2023-02-07T15:55:25.900Z,14.17
2023-02-07T15:58:22.743Z,10.87
2023-02-07T16:01:16.789Z,12.53
2023-02-07T16:04:05.508Z,13.20
2023-02-07T16:07:01.288Z,10.10
2023-02-07T16:09:49.973Z,10.20
2023-02-07T16:12:45.959Z,10.20
2023-02-07T16:15:36.563Z,12.77
2023-02-07T16:18:38.838Z,14.37
2023-02-07T16:21:28.346Z,12.50
2023-02-07T16:24:19.896Z,11.20
2023-02-07T16:27:08.499Z,12.37
2023-02-07T16:29:58.023Z,10.87
2023-02-07T16:32:46.670Z,9.20
2023-02-07T16:35:35.274Z,9.47
2023-02-07T16:38:23.736Z,22.30
2023-02-07T16:41:23.828Z,12.37
2023-02-07T16:44:15.668Z,11.07
2023-02-07T16:47:04.169Z,10.87
2023-02-07T16:49:52.652Z,11.87
2023-02-07T16:52:41.124Z,12.27
2023-02-07T16:55:29.879Z,10.37
2023-02-07T16:58:27.581Z,17.70
2023-02-07T17:01:18.519Z,10.90
2023-02-07T17:04:07.059Z,12.80
2023-02-07T17:06:55.515Z,12.13
2023-02-07T17:09:46.319Z,18.73
2023-02-07T17:12:34.849Z,19.07
2023-02-07T17:15:24.973Z,24.73
2023-02-07T17:18:13.902Z,13.27
2023-02-07T17:21:02.654Z,15.33
2023-02-07T17:23:51.615Z,12.93
2023-02-07T17:26:43.514Z,11.43
2023-02-07T17:29:32.057Z,11.23
2023-02-07T17:32:21.917Z,12.97
2023-02-07T17:35:10.460Z,11.33
2023-02-07T17:38:00.100Z,13.33
2023-02-07T17:40:48.679Z,12.60
2023-02-07T17:43:37.313Z,13.17
2023-02-07T17:46:27.900Z,10.90
2023-02-07T17:49:18.151Z,12.13
2023-02-07T17:52:08.491Z,13.50
2023-02-07T17:54:56.974Z,11.20
2023-02-07T17:57:45.569Z,11.07
2023-02-07T18:00:36.686Z,12.03
2023-02-07T18:03:25.197Z,12.87
2023-02-07T18:06:16.296Z,15.27
2023-02-07T18:09:04.882Z,16.30
2023-02-07T18:11:53.407Z,14.33
2023-02-07T18:14:41.894Z,15.60
2023-02-07T18:17:31.622Z,16.70
2023-02-07T18:20:22.572Z,19.40
2023-02-07T18:23:13.433Z,14.07
2023-02-07T18:26:02.164Z,14.20
2023-02-07T18:28:53.463Z,13.97
2023-02-07T18:31:41.970Z,19.30
2023-02-07T18:34:30.498Z,13.63
2023-02-07T18:37:21.084Z,13.20
2023-02-07T18:40:15.658Z,12.60
2023-02-07T18:43:05.226Z,13.57
2023-02-07T18:45:53.821Z,14.90
2023-02-07T18:48:44.837Z,15.77
2023-02-07T18:51:34.021Z,16.10
2023-02-07T18:54:22.643Z,21.80
2023-02-07T18:57:12.778Z,17.87
2023-02-07T19:00:01.338Z,21.70
2023-02-07T19:02:50.043Z,15.70
2023-02-07T19:05:38.887Z,15.43
2023-02-07T19:08:27.641Z,15.40
2023-02-07T19:11:16.465Z,17.37
2023-02-07T19:14:12.002Z,16.50
2023-02-07T19:17:00.725Z,16.00
2023-02-07T19:19:50.228Z,20.50
2023-02-07T19:22:38.815Z,22.57
2023-02-07T19:25:27.538Z,27.60
2023-02-07T19:28:16.122Z,23.70
2023-02-07T19:31:06.783Z,27.93
2023-02-07T19:33:56.068Z,25.50
2023-02-07T19:36:46.681Z,26.73
2023-02-07T19:39:35.946Z,24.70
2023-02-07T19:42:25.117Z,20.50
2023-02-07T19:45:13.651Z,27.90
2023-02-07T19:48:03.555Z,26.93
2023-02-07T19:50:58.760Z,29.57
2023-02-07T19:53:55.738Z,32.10
2023-02-07T19:56:46.555Z,31.13
2023-02-07T19:59:35.198Z,33.20
2023-02-07T20:02:25.030Z,45.37
2023-02-07T20:05:15.013Z,39.83
2023-02-07T20:08:03.572Z,70.37
2023-02-07T20:10:52.066Z,39.93
2023-02-07T20:13:43.222Z,25.50
2023-02-07T20:16:36.342Z,26.23
2023-02-07T20:19:25.200Z,22.83
2023-02-07T20:22:15.068Z,27.90
2023-02-07T20:25:04.611Z,24.50
2023-02-07T20:27:53.281Z,24.60
2023-02-07T20:30:44.458Z,26.73
2023-02-07T20:33:35.257Z,24.10
2023-02-07T20:36:23.972Z,21.50
2023-02-07T20:39:15.810Z,20.57
2023-02-07T20:42:04.712Z,22.67
2023-02-07T20:44:53.268Z,22.80
2023-02-07T20:47:41.750Z,24.27
2023-02-07T20:50:30.315Z,21.70
2023-02-07T20:53:18.838Z,25.87
2023-02-07T20:56:12.462Z,24.73
2023-02-07T20:59:01.192Z,30.00
2023-02-07T21:01:49.836Z,25.03
2023-02-07T21:04:39.296Z,19.57
2023-02-07T21:07:27.911Z,26.17
2023-02-07T21:10:16.418Z,28.57
2023-02-07T21:13:06.304Z,30.43
2023-02-07T21:16:02.822Z,27.20
2023-02-07T21:18:52.139Z,32.57
2023-02-07T21:21:40.718Z,31.43
2023-02-07T21:24:29.222Z,38.70
2023-02-07T21:27:18.961Z,45.80
2023-02-07T21:30:10.190Z,34.53
2023-02-07T21:32:58.655Z,23.60
2023-02-07T21:35:48.366Z,30.13
2023-02-07T21:38:37.206Z,24.60
2023-02-07T21:41:27.153Z,36.70
2023-02-07T21:44:16.135Z,59.37
2023-02-07T21:47:06.064Z,52.03
2023-02-07T21:49:54.600Z,33.70
2023-02-07T21:52:43.045Z,32.50
2023-02-07T21:55:33.974Z,24.23
2023-02-07T21:58:22.497Z,21.33
2023-02-07T22:01:13.653Z,24.07
2023-02-07T22:04:04.778Z,21.07
2023-02-07T22:06:53.273Z,20.50
2023-02-07T22:09:41.788Z,26.20
2023-02-07T22:12:30.369Z,26.63
2023-02-07T22:15:19.127Z,26.57
2023-02-07T22:18:07.730Z,40.00
2023-02-07T22:21:04.892Z,31.83
2023-02-07T22:23:53.745Z,37.03
2023-02-07T22:26:42.874Z,31.83
2023-02-07T22:29:31.416Z,30.73
2023-02-07T22:32:20.235Z,34.27
2023-02-07T22:35:09.061Z,34.27
2023-02-07T22:37:59.252Z,29.90
2023-02-07T22:40:47.790Z,31.80
2023-02-07T22:43:37.417Z,36.97
2023-02-07T22:46:26.204Z,24.30
2023-02-07T22:49:14.811Z,28.83
2023-02-07T22:52:03.554Z,25.17
2023-02-07T22:54:56.102Z,26.73
2023-02-07T22:57:44.591Z,24.93
2023-02-07T23:00:33.221Z,23.53
2023-02-07T23:03:21.771Z,25.87
2023-02-07T23:06:10.274Z,28.93
2023-02-07T23:08:59.015Z,26.27
2023-02-07T23:11:48.938Z,25.87
2023-02-07T23:14:38.515Z,25.20
2023-02-07T23:17:27.364Z,21.53
2023-02-07T23:20:17.469Z,28.97
2023-02-07T23:23:06.290Z,23.07
2023-02-07T23:25:54.707Z,23.37
2023-02-07T23:28:45.026Z,25.60
2023-02-07T23:31:33.962Z,23.00
2023-02-07T23:34:22.538Z,21.77
2023-02-07T23:37:10.956Z,24.30
2023-02-07T23:39:59.450Z,21.00
2023-02-07T23:42:47.976Z,21.57
2023-02-07T23:45:37.801Z,22.47
2023-02-07T23:48:27.533Z,22.60
2023-02-07T23:51:16.495Z,21.27
2023-02-07T23:54:05.271Z,20.07
2023-02-07T23:56:54.025Z,21.93
2023-02-07T23:59:42.571Z,21.97
